Aeroporto :
LOGIN :

Iscrizione | Disclaimer

   EN    FR    IT 

 










Sommario :    VFR   VFR Marginale   IFR   IFR Intensivo   IFR Molto Intensivo
Visibilità : 
Base nubi : 
>= 8 km
>= 3000ft
5 / 8 km
1000 / 3000 ft
1500m / 5 km
500 / 1000 ft
800 / 1500m
200 / 500 ft
< 800m
< 200 ft
Simboli :   Temporali  Nebbia  Neve Forte  Precipitazioni Forti  Vento > 20 kt
SIGMETs :   Varie  Temporali  Ghiacco  Turbolenza  Onda orograficha  Ceneri Vulcaniche







- Altitudine del aeroporto : 405 ft
- Codice IATA : ODH


EGVO - RAF Odiham

ULTIMO METAR :
  • 191750Z 26012KT 9999 FEW045 18/09 Q1016 NOSIG RMK BLU BLU

METARs OBSOLETI :
  • 191720Z 26014KT 9999 FEW045 18/09 Q1016 NOSIG RMK BLU BLU
  • 191650Z 25015KT 9999 FEW045 19/09 Q1016 NOSIG RMK BLU BLU
  • 191620Z 22010KT 9999 FEW038 18/12 Q1016 NOSIG RMK BLU BLU
  • 191550Z 23010KT 9999 FEW030 17/11 Q1016 NOSIG RMK BLU BLU
  • 191521Z 24016KT 9999 FEW022CB SCT080 15/11 Q1016 RESHRA NOSIG RMK BLU BLU

TAF TAF EGVO
Valido dal 19 a 18 ore il 20 a 06 ore UTC


191620Z 1918/2006 24010KT 9999 FEW040
Nessun NOTAM noto per questo aeroporto.



MetMap, La meteo Aeronautica in un colpo d'occhio ! - Copyright ORBIFLY Dicembre 2007 - Disclaimer

ORBIFLY MET'MAP TEAM :

Programmazione e sviluppo : Alexandra Zaïnal
Concezione e sviluppo : Baudouin d'Aumeries
Co-Programmazione e sviluppo : Marc-Olivier Méhu
Supporto tecnico e logistico : Manuel Goepfert
Aiuto per la traduzione : Arnaldo La Scala

Contatto : metmap@orbifly.com




FONTI E CREDITI :

   NOAA